sensor_id;sensor_type;location;lat;lon;timestamp;pressure;altitude;pressure_sealevel;temperature;humidity
72959;BME280;60008;50.826;6.896;2023-07-28T00:00:37;100123.56;;;17.43;100.00
72959;BME280;60008;50.826;6.896;2023-07-28T00:03:34;100121.94;;;17.42;100.00
72959;BME280;60008;50.826;6.896;2023-07-28T00:06:33;100123.19;;;17.40;100.00
72959;BME280;60008;50.826;6.896;2023-07-28T00:09:26;100121.06;;;17.48;100.00
72959;BME280;60008;50.826;6.896;2023-07-28T00:12:17;100121.19;;;17.60;100.00
72959;BME280;60008;50.826;6.896;2023-07-28T00:15:03;100122.06;;;17.54;100.00
72959;BME280;60008;50.826;6.896;2023-07-28T00:17:54;100125.88;;;17.64;100.00
72959;BME280;60008;50.826;6.896;2023-07-28T00:20:39;100130.06;;;17.60;100.00
72959;BME280;60008;50.826;6.896;2023-07-28T00:23:31;100127.38;;;17.60;100.00
72959;BME280;60008;50.826;6.896;2023-07-28T00:26:16;100134.59;;;17.60;100.00
72959;BME280;60008;50.826;6.896;2023-07-28T00:29:09;100129.91;;;17.55;100.00
72959;BME280;60008;50.826;6.896;2023-07-28T00:31:54;100132.50;;;17.37;100.00
72959;BME280;60008;50.826;6.896;2023-07-28T00:34:46;100125.28;;;17.38;100.00
72959;BME280;60008;50.826;6.896;2023-07-28T00:37:31;100121.78;;;17.37;100.00
72959;BME280;60008;50.826;6.896;2023-07-28T00:40:23;100126.53;;;17.35;100.00
72959;BME280;60008;50.826;6.896;2023-07-28T00:43:08;100118.94;;;17.32;100.00
72959;BME280;60008;50.826;6.896;2023-07-28T00:45:59;100125.28;;;17.38;100.00
72959;BME280;60008;50.826;6.896;2023-07-28T00:48:52;100120.06;;;17.43;100.00
72959;BME280;60008;50.826;6.896;2023-07-28T00:51:44;100116.28;;;17.50;100.00
72959;BME280;60008;50.826;6.896;2023-07-28T00:54:36;100118.81;;;17.45;100.00
72959;BME280;60008;50.826;6.896;2023-07-28T00:57:28;100118.75;;;17.52;100.00
72959;BME280;60008;50.826;6.896;2023-07-28T01:00:14;100127.00;;;17.57;100.00
72959;BME280;60008;50.826;6.896;2023-07-28T01:03:12;100115.69;;;17.55;100.00
72959;BME280;60008;50.826;6.896;2023-07-28T01:09:21;100118.13;;;17.56;100.00
72959;BME280;60008;50.826;6.896;2023-07-28T01:12:09;100114.56;;;17.62;100.00
72959;BME280;60008;50.826;6.896;2023-07-28T01:15:01;100115.25;;;17.58;100.00
72959;BME280;60008;50.826;6.896;2023-07-28T01:17:46;100113.97;;;17.60;100.00
72959;BME280;60008;50.826;6.896;2023-07-28T01:20:38;100116.28;;;17.50;100.00
72959;BME280;60008;50.826;6.896;2023-07-28T01:23:46;100111.59;;;17.46;100.00
72959;BME280;60008;50.826;6.896;2023-07-28T01:26:43;100121.03;;;17.55;100.00
72959;BME280;60008;50.826;6.896;2023-07-28T01:29:36;100118.75;;;17.52;100.00
72959;BME280;60008;50.826;6.896;2023-07-28T01:32:27;100125.97;;;17.51;100.00
72959;BME280;60008;50.826;6.896;2023-07-28T01:35:13;100123.28;;;17.51;100.00
72959;BME280;60008;50.826;6.896;2023-07-28T01:38:04;100122.56;;;17.44;100.00
72959;BME280;60008;50.826;6.896;2023-07-28T01:40:49;100124.16;;;17.45;100.00
72959;BME280;60008;50.826;6.896;2023-07-28T01:43:42;100128.50;;;17.46;100.00
72959;BME280;60008;50.826;6.896;2023-07-28T01:46:27;100116.13;;;17.45;100.00
72959;BME280;60008;50.826;6.896;2023-07-28T01:49:19;100122.47;;;17.51;100.00
72959;BME280;60008;50.826;6.896;2023-07-28T01:52:04;100118.44;;;17.42;100.00
72959;BME280;60008;50.826;6.896;2023-07-28T01:54:55;100118.38;;;17.48;100.00
72959;BME280;60008;50.826;6.896;2023-07-28T01:57:57;100113.69;;;17.44;100.00
72959;BME280;60008;50.826;6.896;2023-07-28T02:00:43;100118.34;;;17.55;100.00
72959;BME280;60008;50.826;6.896;2023-07-28T02:03:34;100124.25;;;17.63;100.00
72959;BME280;60008;50.826;6.896;2023-07-28T02:06:32;100119.38;;;17.54;100.00
72959;BME280;60008;50.826;6.896;2023-07-28T02:09:23;100114.88;;;17.48;100.00
72959;BME280;60008;50.826;6.896;2023-07-28T02:12:08;100118.56;;;17.53;100.00
72959;BME280;60008;50.826;6.896;2023-07-28T02:15:01;100111.84;;;17.44;100.00
72959;BME280;60008;50.826;6.896;2023-07-28T02:17:52;100103.19;;;17.42;100.00
72959;BME280;60008;50.826;6.896;2023-07-28T02:20:47;100119.97;;;17.56;100.00
72959;BME280;60008;50.826;6.896;2023-07-28T02:23:40;100117.56;;;17.48;100.00
72959;BME280;60008;50.826;6.896;2023-07-28T02:26:32;100118.56;;;17.53;100.00
72959;BME280;60008;50.826;6.896;2023-07-28T02:29:23;100123.53;;;17.50;100.00
72959;BME280;60008;50.826;6.896;2023-07-28T02:32:09;100123.03;;;17.59;100.00
72959;BME280;60008;50.826;6.896;2023-07-28T02:35:01;100121.41;;;17.58;100.00
72959;BME280;60008;50.826;6.896;2023-07-28T02:37:46;100125.56;;;17.54;100.00
72959;BME280;60008;50.826;6.896;2023-07-28T02:40:37;100118.34;;;17.55;100.00
72959;BME280;60008;50.826;6.896;2023-07-28T02:43:30;100121.03;;;17.55;100.00
72959;BME280;60008;50.826;6.896;2023-07-28T02:46:15;100115.94;;;17.47;100.00
72959;BME280;60008;50.826;6.896;2023-07-28T02:49:06;100116.53;;;17.49;100.00
72959;BME280;60008;50.826;6.896;2023-07-28T02:51:51;100121.28;;;17.47;100.00
72959;BME280;60008;50.826;6.896;2023-07-28T02:54:42;100125.00;;;17.46;100.00
72959;BME280;60008;50.826;6.896;2023-07-28T02:57:34;100129.53;;;17.45;100.00
72959;BME280;60008;50.826;6.896;2023-07-28T03:00:19;100134.34;;;17.37;100.00
72959;BME280;60008;50.826;6.896;2023-07-28T03:03:11;100129.31;;;17.47;100.00
72959;BME280;60008;50.826;6.896;2023-07-28T03:06:03;100124.78;;;17.47;100.00
72959;BME280;60008;50.826;6.896;2023-07-28T03:08:54;100119.63;;;17.46;100.00
72959;BME280;60008;50.826;6.896;2023-07-28T03:11:39;100136.69;;;17.58;100.00
72959;BME280;60008;50.826;6.896;2023-07-28T03:14:30;100131.91;;;17.60;100.00
72959;BME280;60008;50.826;6.896;2023-07-28T03:17:16;100132.72;;;17.60;100.00
72959;BME280;60008;50.826;6.896;2023-07-28T03:20:08;100128.63;;;17.58;100.00
72959;BME280;60008;50.826;6.896;2023-07-28T03:22:53;100131.41;;;17.45;100.00
72959;BME280;60008;50.826;6.896;2023-07-28T03:25:45;100135.66;;;17.52;100.00
72959;BME280;60008;50.826;6.896;2023-07-28T03:28:36;100127.44;;;17.54;100.00
72959;BME280;60008;50.826;6.896;2023-07-28T03:31:27;100138.91;;;17.61;100.00
72959;BME280;60008;50.826;6.896;2023-07-28T03:34:13;100138.09;;;17.60;100.00
72959;BME280;60008;50.826;6.896;2023-07-28T03:37:05;100135.66;;;17.52;100.00
72959;BME280;60008;50.826;6.896;2023-07-28T03:39:50;100142.03;;;17.58;100.00
72959;BME280;60008;50.826;6.896;2023-07-28T03:42:42;100145.47;;;17.65;100.00
72959;BME280;60008;50.826;6.896;2023-07-28T03:45:33;100148.53;;;17.68;100.00
72959;BME280;60008;50.826;6.896;2023-07-28T03:48:18;100140.34;;;17.63;100.00
72959;BME280;60008;50.826;6.896;2023-07-28T03:51:10;100146.13;;;17.60;100.00
72959;BME280;60008;50.826;6.896;2023-07-28T03:53:55;100151.06;;;17.63;100.00
72959;BME280;60008;50.826;6.896;2023-07-28T03:56:47;100144.03;;;17.62;100.00
72959;BME280;60008;50.826;6.896;2023-07-28T03:59:32;100145.47;;;17.65;100.00
72959;BME280;60008;50.826;6.896;2023-07-28T04:02:31;100144.88;;;17.63;100.00
72959;BME280;60008;50.826;6.896;2023-07-28T04:05:30;100146.72;;;17.62;100.00
72959;BME280;60008;50.826;6.896;2023-07-28T04:08:22;100146.06;;;17.67;100.00
72959;BME280;60008;50.826;6.896;2023-07-28T04:11:07;100141.13;;;17.64;100.00
72959;BME280;60008;50.826;6.896;2023-07-28T04:13:59;100138.53;;;17.57;100.00
72959;BME280;60008;50.826;6.896;2023-07-28T04:16:44;100135.72;;;17.46;100.00
72959;BME280;60008;50.826;6.896;2023-07-28T04:19:36;100143.59;;;17.41;100.00
72959;BME280;60008;50.826;6.896;2023-07-28T04:22:21;100145.75;;;17.50;100.00
72959;BME280;60008;50.826;6.896;2023-07-28T04:25:12;100150.59;;;17.42;100.00
72959;BME280;60008;50.826;6.896;2023-07-28T04:27:58;100160.38;;;17.61;100.00
72959;BME280;60008;50.826;6.896;2023-07-28T04:30:50;100149.84;;;17.59;100.00
72959;BME280;60008;50.826;6.896;2023-07-28T04:33:35;100158.03;;;17.64;100.00
72959;BME280;60008;50.826;6.896;2023-07-28T04:36:26;100153.34;;;17.60;100.00
72959;BME280;60008;50.826;6.896;2023-07-28T04:39:12;100158.66;;;17.66;100.00
72959;BME280;60008;50.826;6.896;2023-07-28T04:42:04;100162.53;;;17.70;100.00
72959;BME280;60008;50.826;6.896;2023-07-28T04:44:56;100171.53;;;17.76;100.00
72959;BME280;60008;50.826;6.896;2023-07-28T04:47:41;100169.69;;;17.76;100.00
72959;BME280;60008;50.826;6.896;2023-07-28T04:50:33;100165.59;;;17.74;100.00
72959;BME280;60008;50.826;6.896;2023-07-28T04:53:19;100170.19;;;17.67;100.00
72959;BME280;60008;50.826;6.896;2023-07-28T04:56:10;100170.50;;;17.77;100.00
72959;BME280;60008;50.826;6.896;2023-07-28T04:58:55;100174.97;;;17.83;100.00
72959;BME280;60008;50.826;6.896;2023-07-28T05:01:47;100175.94;;;17.89;100.00
72959;BME280;60008;50.826;6.896;2023-07-28T05:04:39;100177.53;;;17.96;100.00
72959;BME280;60008;50.826;6.896;2023-07-28T05:07:30;100178.13;;;17.98;100.00
72959;BME280;60008;50.826;6.896;2023-07-28T05:10:22;100177.75;;;17.95;100.00
72959;BME280;60008;50.826;6.896;2023-07-28T05:13:13;100184.44;;;17.85;100.00
72959;BME280;60008;50.826;6.896;2023-07-28T05:15:58;100185.03;;;17.88;100.00
72959;BME280;60008;50.826;6.896;2023-07-28T05:18:50;100186.53;;;17.83;100.00
72959;BME280;60008;50.826;6.896;2023-07-28T05:21:35;100192.31;;;17.80;100.00
72959;BME280;60008;50.826;6.896;2023-07-28T05:24:26;100191.22;;;17.88;100.00
72959;BME280;60008;50.826;6.896;2023-07-28T05:27:17;100192.56;;;17.97;100.00
72959;BME280;60008;50.826;6.896;2023-07-28T05:30:02;100195.16;;;17.85;100.00
72959;BME280;60008;50.826;6.896;2023-07-28T05:32:55;100191.22;;;17.88;100.00
72959;BME280;60008;50.826;6.896;2023-07-28T05:35:40;100195.25;;;17.97;100.00
72959;BME280;60008;50.826;6.896;2023-07-28T05:38:32;100194.66;;;17.95;100.00
72959;BME280;60008;50.826;6.896;2023-07-28T05:41:17;100214.16;;;18.02;100.00
72959;BME280;60008;50.826;6.896;2023-07-28T05:44:08;100199.72;;;18.03;100.00
72959;BME280;60008;50.826;6.896;2023-07-28T05:46:53;100207.94;;;18.08;100.00
72959;BME280;60008;50.826;6.896;2023-07-28T05:49:44;100211.09;;;18.23;100.00
72959;BME280;60008;50.826;6.896;2023-07-28T05:52:37;100207.44;;;18.18;100.00
72959;BME280;60008;50.826;6.896;2023-07-28T05:55:22;100211.28;;;18.22;100.00
72959;BME280;60008;50.826;6.896;2023-07-28T05:58:15;100214.22;;;18.20;100.00
72959;BME280;60008;50.826;6.896;2023-07-28T06:01:00;100208.75;;;18.27;100.00
72959;BME280;60008;50.826;6.896;2023-07-28T06:03:58;100209.88;;;18.37;100.00
72959;BME280;60008;50.826;6.896;2023-07-28T06:06:44;100211.53;;;18.38;100.00
72959;BME280;60008;50.826;6.896;2023-07-28T06:09:36;100215.47;;;18.18;100.00
72959;BME280;60008;50.826;6.896;2023-07-28T06:12:21;100220.75;;;18.24;100.00
72959;BME280;60008;50.826;6.896;2023-07-28T06:15:13;100223.06;;;18.21;100.00
72959;BME280;60008;50.826;6.896;2023-07-28T06:17:58;100231.34;;;18.19;100.00
72959;BME280;60008;50.826;6.896;2023-07-28T06:20:50;100221.81;;;18.23;100.00
72959;BME280;60008;50.826;6.896;2023-07-28T06:23:35;100233.28;;;18.30;100.00
72959;BME280;60008;50.826;6.896;2023-07-28T06:26:26;100239.25;;;18.32;100.00
72959;BME280;60008;50.826;6.896;2023-07-28T06:29:11;100233.44;;;18.35;100.00
72959;BME280;60008;50.826;6.896;2023-07-28T06:32:04;100238.28;;;18.27;100.00
72959;BME280;60008;50.826;6.896;2023-07-28T06:34:49;100234.41;;;18.41;100.00
72959;BME280;60008;50.826;6.896;2023-07-28T06:37:42;100233.81;;;18.57;100.00
72959;BME280;60008;50.826;6.896;2023-07-28T06:40:27;100242.13;;;18.56;100.00
72959;BME280;60008;50.826;6.896;2023-07-28T06:43:19;100232.94;;;18.63;100.00
72959;BME280;60008;50.826;6.896;2023-07-28T06:46:04;100240.38;;;18.79;100.00
72959;BME280;60008;50.826;6.896;2023-07-28T06:48:55;100238.41;;;18.86;100.00
72959;BME280;60008;50.826;6.896;2023-07-28T06:51:41;100238.06;;;18.83;100.00
72959;BME280;60008;50.826;6.896;2023-07-28T06:54:33;100246.72;;;18.85;100.00
72959;BME280;60008;50.826;6.896;2023-07-28T06:57:19;100246.00;;;18.89;100.00
72959;BME280;60008;50.826;6.896;2023-07-28T07:00:11;100247.94;;;19.00;100.00
72959;BME280;60008;50.826;6.896;2023-07-28T07:02:57;100253.56;;;19.11;100.00
72959;BME280;60008;50.826;6.896;2023-07-28T07:05:49;100252.91;;;19.15;100.00
72959;BME280;60008;50.826;6.896;2023-07-28T07:08:34;100249.78;;;19.18;100.00
72959;BME280;60008;50.826;6.896;2023-07-28T07:11:26;100248.38;;;19.45;100.00
72959;BME280;60008;50.826;6.896;2023-07-28T07:14:11;100249.31;;;19.51;100.00
72959;BME280;60008;50.826;6.896;2023-07-28T07:17:03;100242.38;;;19.43;100.00
72959;BME280;60008;50.826;6.896;2023-07-28T07:19:48;100236.25;;;19.78;100.00
72959;BME280;60008;50.826;6.896;2023-07-28T07:22:40;100235.69;;;19.99;100.00
72959;BME280;60008;50.826;6.896;2023-07-28T07:25:25;100237.53;;;20.10;100.00
72959;BME280;60008;50.826;6.896;2023-07-28T07:28:17;100243.84;;;19.92;100.00
72959;BME280;60008;50.826;6.896;2023-07-28T07:31:13;100250.28;;;19.80;100.00
72959;BME280;60008;50.826;6.896;2023-07-28T07:33:58;100251.13;;;19.92;100.00
72959;BME280;60008;50.826;6.896;2023-07-28T07:36:50;100247.88;;;20.25;100.00
72959;BME280;60008;50.826;6.896;2023-07-28T07:39:41;100243.50;;;20.47;100.00
72959;BME280;60008;50.826;6.896;2023-07-28T07:42:40;100245.72;;;20.50;100.00
72959;BME280;60008;50.826;6.896;2023-07-28T07:45:33;100254.25;;;20.47;100.00
72959;BME280;60008;50.826;6.896;2023-07-28T07:48:18;100265.53;;;20.32;100.00
72959;BME280;60008;50.826;6.896;2023-07-28T07:51:10;100271.59;;;20.51;100.00
72959;BME280;60008;50.826;6.896;2023-07-28T07:53:55;100270.19;;;20.60;100.00
72959;BME280;60008;50.826;6.896;2023-07-28T07:56:47;100264.34;;;20.91;100.00
72959;BME280;60008;50.826;6.896;2023-07-28T07:59:32;100253.34;;;21.21;100.00
72959;BME280;60008;50.826;6.896;2023-07-28T08:02:25;100261.00;;;21.12;100.00
72959;BME280;60008;50.826;6.896;2023-07-28T08:05:10;100255.63;;;21.12;100.00
72959;BME280;60008;50.826;6.896;2023-07-28T08:08:09;100244.44;;;21.20;100.00
72959;BME280;60008;50.826;6.896;2023-07-28T08:10:55;100253.19;;;20.99;100.00
72959;BME280;60008;50.826;6.896;2023-07-28T08:13:47;100257.75;;;21.10;100.00
72959;BME280;60008;50.826;6.896;2023-07-28T08:16:33;100267.13;;;21.08;100.00
72959;BME280;60008;50.826;6.896;2023-07-28T08:19:25;100261.69;;;21.19;100.00
72959;BME280;60008;50.826;6.896;2023-07-28T08:22:10;100269.00;;;21.35;100.00
72959;BME280;60008;50.826;6.896;2023-07-28T08:25:05;100227.19;;;24.35;100.00
72959;BME280;60008;50.826;6.896;2023-07-28T08:27:50;100221.03;;;23.66;100.00
72959;BME280;60008;50.826;6.896;2023-07-28T08:30:42;100213.25;;;24.73;100.00
72959;BME280;60008;50.826;6.896;2023-07-28T08:33:27;100224.09;;;22.51;100.00
72959;BME280;60008;50.826;6.896;2023-07-28T08:36:19;100219.47;;;24.69;100.00
72959;BME280;60008;50.826;6.896;2023-07-28T08:39:05;100200.72;;;26.64;100.00
72959;BME280;60008;50.826;6.896;2023-07-28T08:42:00;100197.47;;;25.63;100.00
72959;BME280;60008;50.826;6.896;2023-07-28T08:44:46;100185.41;;;27.90;100.00
72959;BME280;60008;50.826;6.896;2023-07-28T08:47:39;100192.69;;;26.98;100.00
72959;BME280;60008;50.826;6.896;2023-07-28T08:50:24;100194.59;;;27.36;100.00
72959;BME280;60008;50.826;6.896;2023-07-28T08:53:17;100197.38;;;25.22;100.00
72959;BME280;60008;50.826;6.896;2023-07-28T08:56:08;100210.91;;;24.30;100.00
72959;BME280;60008;50.826;6.896;2023-07-28T08:58:58;100217.28;;;23.13;100.00
72959;BME280;60008;50.826;6.896;2023-07-28T09:01:54;100226.25;;;23.73;100.00
72959;BME280;60008;50.826;6.896;2023-07-28T09:04:48;100208.53;;;25.31;100.00
72959;BME280;60008;50.826;6.896;2023-07-28T09:07:42;100206.41;;;25.73;100.00
72959;BME280;60008;50.826;6.896;2023-07-28T09:10:46;100208.28;;;25.88;100.00
72959;BME280;60008;50.826;6.896;2023-07-28T09:13:41;100208.84;;;26.69;100.00
72959;BME280;60008;50.826;6.896;2023-07-28T09:16:27;100210.34;;;23.86;100.00
72959;BME280;60008;50.826;6.896;2023-07-28T09:19:21;100211.50;;;23.58;100.00
72959;BME280;60008;50.826;6.896;2023-07-28T09:22:07;100214.19;;;23.53;100.00
72959;BME280;60008;50.826;6.896;2023-07-28T09:25:11;100210.13;;;24.30;100.00
72959;BME280;60008;50.826;6.896;2023-07-28T09:27:57;100203.56;;;24.20;100.00
72959;BME280;60008;50.826;6.896;2023-07-28T09:30:49;100205.50;;;24.30;100.00
72959;BME280;60008;50.826;6.896;2023-07-28T09:33:36;100212.75;;;23.46;100.00
72959;BME280;60008;50.826;6.896;2023-07-28T09:36:28;100226.22;;;23.41;100.00
72959;BME280;60008;50.826;6.896;2023-07-28T09:39:14;100227.91;;;22.12;100.00
72959;BME280;60008;50.826;6.896;2023-07-28T09:42:06;100231.31;;;22.45;100.00
72959;BME280;60008;50.826;6.896;2023-07-28T09:45:01;100228.94;;;22.49;100.00
72959;BME280;60008;50.826;6.896;2023-07-28T09:47:47;100233.72;;;22.42;100.00
72959;BME280;60008;50.826;6.896;2023-07-28T09:50:44;100232.75;;;22.70;100.00
72959;BME280;60008;50.826;6.896;2023-07-28T09:53:30;100237.06;;;22.92;100.00
72959;BME280;60008;50.826;6.896;2023-07-28T09:56:27;100229.41;;;22.84;100.00
72959;BME280;60008;50.826;6.896;2023-07-28T09:59:16;100231.34;;;22.89;100.00
72959;BME280;60008;50.826;6.896;2023-07-28T10:02:09;100221.53;;;23.04;100.00
72959;BME280;60008;50.826;6.896;2023-07-28T10:04:55;100223.03;;;24.17;100.00
72959;BME280;60008;50.826;6.896;2023-07-28T10:07:54;100209.31;;;24.34;100.00
72959;BME280;60008;50.826;6.896;2023-07-28T10:10:40;100208.13;;;24.72;100.00
72959;BME280;60008;50.826;6.896;2023-07-28T10:13:40;100216.44;;;24.50;100.00
72959;BME280;60008;50.826;6.896;2023-07-28T10:16:31;100209.28;;;24.96;100.00
72959;BME280;60008;50.826;6.896;2023-07-28T10:19:28;100212.31;;;23.32;100.00
72959;BME280;60008;50.826;6.896;2023-07-28T10:22:19;100227.22;;;23.08;100.00
72959;BME280;60008;50.826;6.896;2023-07-28T10:25:11;100226.13;;;23.04;100.00
72959;BME280;60008;50.826;6.896;2023-07-28T10:27:55;100230.28;;;23.17;100.00
72959;BME280;60008;50.826;6.896;2023-07-28T10:30:53;100231.09;;;22.90;100.00
72959;BME280;60008;50.826;6.896;2023-07-28T10:33:40;100234.78;;;23.06;100.00
72959;BME280;60008;50.826;6.896;2023-07-28T10:36:34;100222.94;;;23.70;100.00
72959;BME280;60008;50.826;6.896;2023-07-28T10:39:20;100223.16;;;23.59;100.00
72959;BME280;60008;50.826;6.896;2023-07-28T10:42:13;100233.56;;;23.77;100.00
72959;BME280;60008;50.826;6.896;2023-07-28T10:44:58;100239.78;;;23.46;100.00
72959;BME280;60008;50.826;6.896;2023-07-28T10:47:51;100238.94;;;22.92;100.00
72959;BME280;60008;50.826;6.896;2023-07-28T10:50:44;100236.63;;;22.79;100.00
72959;BME280;60008;50.826;6.896;2023-07-28T10:53:35;100240.09;;;22.74;100.00
72959;BME280;60008;50.826;6.896;2023-07-28T10:56:21;100241.00;;;22.41;100.00
72959;BME280;60008;50.826;6.896;2023-07-28T10:59:13;100238.81;;;22.60;100.00
72959;BME280;60008;50.826;6.896;2023-07-28T11:02:05;100239.19;;;22.09;100.00
72959;BME280;60008;50.826;6.896;2023-07-28T11:05:10;100238.75;;;22.55;100.00
72959;BME280;60008;50.826;6.896;2023-07-28T11:07:58;100243.59;;;22.75;100.00
72959;BME280;60008;50.826;6.896;2023-07-28T11:10:50;100240.75;;;23.08;100.00
72959;BME280;60008;50.826;6.896;2023-07-28T11:13:42;100243.34;;;23.51;100.00
72959;BME280;60008;50.826;6.896;2023-07-28T11:16:27;100241.97;;;22.95;100.00
72959;BME280;60008;50.826;6.896;2023-07-28T11:19:19;100250.16;;;22.79;100.00
72959;BME280;60008;50.826;6.896;2023-07-28T11:22:16;100245.13;;;22.87;100.00
72959;BME280;60008;50.826;6.896;2023-07-28T11:25:05;100234.69;;;23.23;100.00
72959;BME280;60008;50.826;6.896;2023-07-28T11:28:04;100235.63;;;23.65;100.00
72959;BME280;60008;50.826;6.896;2023-07-28T11:30:52;100235.19;;;23.46;100.00
72959;BME280;60008;50.826;6.896;2023-07-28T11:33:44;100247.13;;;22.75;100.00
72959;BME280;60008;50.826;6.896;2023-07-28T11:36:30;100240.69;;;22.60;100.00
72959;BME280;60008;50.826;6.896;2023-07-28T11:39:22;100247.41;;;22.35;100.00
72959;BME280;60008;50.826;6.896;2023-07-28T11:42:08;100245.53;;;22.36;100.00
72959;BME280;60008;50.826;6.896;2023-07-28T11:45:04;100244.84;;;22.45;100.00
72959;BME280;60008;50.826;6.896;2023-07-28T11:50:48;100234.41;;;22.97;100.00
72959;BME280;60008;50.826;6.896;2023-07-28T11:53:40;100236.44;;;23.07;100.00
72959;BME280;60008;50.826;6.896;2023-07-28T11:56:27;100222.06;;;23.97;100.00
72959;BME280;60008;50.826;6.896;2023-07-28T11:59:20;100225.34;;;23.99;100.00
72959;BME280;60008;50.826;6.896;2023-07-28T12:02:06;100213.63;;;23.88;100.00
72959;BME280;60008;50.826;6.896;2023-07-28T12:05:12;100229.44;;;23.38;100.00
72959;BME280;60008;50.826;6.896;2023-07-28T12:08:11;100219.78;;;23.47;100.00
72959;BME280;60008;50.826;6.896;2023-07-28T12:10:56;100222.31;;;23.95;100.00
72959;BME280;60008;50.826;6.896;2023-07-28T12:13:51;100214.06;;;23.75;100.00
72959;BME280;60008;50.826;6.896;2023-07-28T12:16:40;100221.31;;;23.38;100.00
72959;BME280;60008;50.826;6.896;2023-07-28T12:19:42;100209.63;;;24.01;100.00
72959;BME280;60008;50.826;6.896;2023-07-28T12:22:30;100214.66;;;23.82;100.00
72959;BME280;60008;50.826;6.896;2023-07-28T12:25:22;100206.84;;;23.54;100.00
72959;BME280;60008;50.826;6.896;2023-07-28T12:28:14;100208.50;;;23.55;100.00
72959;BME280;60008;50.826;6.896;2023-07-28T12:31:01;100222.72;;;23.19;100.00
72959;BME280;60008;50.826;6.896;2023-07-28T12:34:07;100219.59;;;22.78;100.00
72959;BME280;60008;50.826;6.896;2023-07-28T12:37:09;100224.56;;;22.86;100.00
72959;BME280;60008;50.826;6.896;2023-07-28T12:40:01;100236.09;;;22.77;100.00
72959;BME280;60008;50.826;6.896;2023-07-28T12:42:49;100222.22;;;22.95;100.00
72959;BME280;60008;50.826;6.896;2023-07-28T12:45:44;100221.94;;;23.18;100.00
72959;BME280;60008;50.826;6.896;2023-07-28T12:48:32;100227.34;;;23.18;100.00
72959;BME280;60008;50.826;6.896;2023-07-28T12:51:26;100218.44;;;23.81;100.00
72959;BME280;60008;50.826;6.896;2023-07-28T12:54:17;100213.34;;;24.26;100.00
72959;BME280;60008;50.826;6.896;2023-07-28T12:57:05;100211.47;;;23.90;100.00
72959;BME280;60008;50.826;6.896;2023-07-28T12:59:58;100218.50;;;24.33;100.00
72959;BME280;60008;50.826;6.896;2023-07-28T13:02:45;100224.09;;;24.11;100.00
72959;BME280;60008;50.826;6.896;2023-07-28T13:05:43;100215.75;;;23.49;100.00
72959;BME280;60008;50.826;6.896;2023-07-28T13:08:35;100224.34;;;23.41;100.00
72959;BME280;60008;50.826;6.896;2023-07-28T13:11:23;100223.06;;;23.49;100.00
72959;BME280;60008;50.826;6.896;2023-07-28T13:14:17;100221.22;;;23.91;100.00
72959;BME280;60008;50.826;6.896;2023-07-28T13:17:08;100212.31;;;23.96;100.00
72959;BME280;60008;50.826;6.896;2023-07-28T13:20:00;100218.59;;;24.06;100.00
72959;BME280;60008;50.826;6.896;2023-07-28T13:22:51;100221.00;;;23.61;100.00
72959;BME280;60008;50.826;6.896;2023-07-28T13:25:36;100248.97;;;23.18;100.00
72959;BME280;60008;50.826;6.896;2023-07-28T13:28:28;100266.88;;;22.59;100.00
72959;BME280;60008;50.826;6.896;2023-07-28T13:31:17;100283.38;;;22.03;100.00
72959;BME280;60008;50.826;6.896;2023-07-28T13:34:09;100298.63;;;21.64;100.00
72959;BME280;60008;50.826;6.896;2023-07-28T13:36:55;100305.41;;;21.21;100.00
72959;BME280;60008;50.826;6.896;2023-07-28T13:39:47;100320.84;;;21.26;100.00
72959;BME280;60008;50.826;6.896;2023-07-28T13:42:32;100331.91;;;21.13;100.00
72959;BME280;60008;50.826;6.896;2023-07-28T13:45:24;100327.84;;;21.39;100.00
72959;BME280;60008;50.826;6.896;2023-07-28T13:48:09;100322.81;;;21.87;100.00
72959;BME280;60008;50.826;6.896;2023-07-28T13:51:03;100323.00;;;21.85;100.00
72959;BME280;60008;50.826;6.896;2023-07-28T13:54:03;100315.19;;;22.17;100.00
72959;BME280;60008;50.826;6.896;2023-07-28T13:56:57;100322.22;;;22.18;100.00
72959;BME280;60008;50.826;6.896;2023-07-28T13:59:49;100321.56;;;22.11;100.00
72959;BME280;60008;50.826;6.896;2023-07-28T14:02:37;100324.50;;;22.10;100.00
72959;BME280;60008;50.826;6.896;2023-07-28T14:05:30;100326.50;;;21.69;100.00
72959;BME280;60008;50.826;6.896;2023-07-28T14:08:28;100328.72;;;21.72;100.00
72959;BME280;60008;50.826;6.896;2023-07-28T14:11:13;100320.97;;;22.26;100.00
72959;BME280;60008;50.826;6.896;2023-07-28T14:14:04;100320.41;;;22.40;100.00
72959;BME280;60008;50.826;6.896;2023-07-28T14:16:48;100315.47;;;22.37;100.00
72959;BME280;60008;50.826;6.896;2023-07-28T14:19:40;100319.22;;;22.91;100.00
72959;BME280;60008;50.826;6.896;2023-07-28T14:22:31;100295.97;;;22.69;100.00
72959;BME280;60008;50.826;6.896;2023-07-28T14:25:17;100298.13;;;22.50;100.00
72959;BME280;60008;50.826;6.896;2023-07-28T14:28:08;100285.34;;;22.45;100.00
72959;BME280;60008;50.826;6.896;2023-07-28T14:30:53;100289.34;;;21.88;100.00
72959;BME280;60008;50.826;6.896;2023-07-28T14:33:45;100302.97;;;21.81;100.00
72959;BME280;60008;50.826;6.896;2023-07-28T14:36:30;100293.81;;;22.16;100.00
72959;BME280;60008;50.826;6.896;2023-07-28T14:39:22;100289.88;;;22.23;100.00
72959;BME280;60008;50.826;6.896;2023-07-28T14:42:07;100293.41;;;22.24;100.00
72959;BME280;60008;50.826;6.896;2023-07-28T14:44:59;100285.50;;;22.56;100.00